Time;durP1;ratioP1;P1;durP2;ratioP2;P2;SDS_P1;SDS_P2;PMS_P1;PMS_P2;Temp;Humidity;BMP_temperature;BMP_pressure;BME280_temperature;BME280_humidity;BME280_pressure;Samples;Min_cycle;Max_cycle;Signal;HPM_P1;HPM_P2
2022/03/16 00:02:45;;;;;;;12.10;4.78;;;3.00;99.90;;;;;;10384506;28;20464;-61
2022/03/16 00:07:47;;;;;;;17.67;5.68;;;3.00;99.90;;;;;;10369533;28;20041;-61
2022/03/16 00:12:48;;;;;;;9.52;4.28;;;3.00;99.90;;;;;;10386237;28;20068;-62
2022/03/16 00:17:50;;;;;;;14.98;5.10;;;2.90;99.90;;;;;;10385307;28;20049;-61
2022/03/16 00:22:51;;;;;;;17.17;5.57;;;2.90;99.90;;;;;;10374200;28;20053;-61
2022/03/16 00:27:53;;;;;;;11.70;4.63;;;2.80;99.90;;;;;;10384274;28;20564;-61
2022/03/16 00:32:55;;;;;;;14.50;4.50;;;2.80;99.90;;;;;;10385074;28;20053;-62
2022/03/16 00:37:56;;;;;;;14.60;4.75;;;2.70;99.90;;;;;;10384179;28;20045;-60
2022/03/16 00:42:58;;;;;;;11.63;4.25;;;2.60;99.90;;;;;;10383182;28;20478;-61
2022/03/16 00:48:00;;;;;;;8.18;3.88;;;2.60;99.90;;;;;;10385807;28;20151;-61
2022/03/16 00:53:02;;;;;;;12.23;4.03;;;2.50;99.90;;;;;;10379219;28;20115;-62
2022/03/16 00:58:03;;;;;;;9.50;3.55;;;2.40;99.90;;;;;;10371698;28;20349;-62
2022/03/16 01:03:05;;;;;;;10.45;3.97;;;2.40;99.90;;;;;;10381464;28;20573;-61
2022/03/16 01:08:07;;;;;;;10.80;4.13;;;2.30;99.90;;;;;;10375819;28;20554;-61
2022/03/16 01:13:09;;;;;;;10.68;3.75;;;2.30;99.90;;;;;;10374703;28;20130;-61
2022/03/16 01:18:11;;;;;;;10.25;3.70;;;2.20;99.90;;;;;;10378380;28;20108;-61
2022/03/16 01:23:13;;;;;;;13.55;4.63;;;2.20;99.90;;;;;;10381490;28;20502;-62
2022/03/16 01:28:14;;;;;;;15.90;5.82;;;2.20;99.90;;;;;;10378948;28;20134;-62
2022/03/16 01:33:16;;;;;;;18.08;6.88;;;2.20;99.90;;;;;;10382786;28;20138;-61
2022/03/16 01:38:18;;;;;;;16.83;6.40;;;2.30;99.90;;;;;;10376330;28;20435;-61
2022/03/16 01:43:20;;;;;;;19.77;6.95;;;2.30;99.90;;;;;;10377804;28;20061;-62
2022/03/16 01:48:21;;;;;;;42.28;10.52;;;2.30;99.90;;;;;;10378930;28;20170;-62
2022/03/16 01:53:24;;;;;;;22.08;8.20;;;2.50;99.90;;;;;;10379986;28;20488;-60
2022/03/16 01:58:26;;;;;;;22.95;8.30;;;2.60;99.90;;;;;;10380803;28;20056;-61
2022/03/16 02:03:28;;;;;;;28.98;9.60;;;2.70;99.90;;;;;;10375194;28;20049;-61
2022/03/16 02:08:30;;;;;;;30.42;8.30;;;2.80;99.90;;;;;;10371271;28;20041;-61
2022/03/16 02:13:36;;;;;;;66.88;10.15;;;2.90;99.90;;;;;;10380210;28;20076;-60
2022/03/16 02:18:38;;;;;;;111.32;9.88;;;3.00;99.90;;;;;;10377950;28;20111;-61
2022/03/16 02:23:39;;;;;;;87.03;7.85;;;3.00;99.90;;;;;;10381196;28;20088;-62
2022/03/16 02:28:41;;;;;;;71.80;7.80;;;3.00;99.90;;;;;;10384604;28;20056;-61
2022/03/16 02:33:43;;;;;;;80.93;7.60;;;2.90;99.90;;;;;;10375297;28;20049;-61
2022/03/16 02:38:45;;;;;;;103.53;7.75;;;2.80;99.90;;;;;;10384496;28;20049;-61
2022/03/16 02:43:47;;;;;;;119.10;9.10;;;2.70;99.90;;;;;;10384919;28;20064;-61
2022/03/16 02:48:49;;;;;;;132.18;8.90;;;2.70;99.90;;;;;;10382983;28;20054;-61
2022/03/16 02:53:52;;;;;;;85.53;8.30;;;2.60;99.90;;;;;;10387523;28;20100;-61
2022/03/16 02:58:55;;;;;;;105.07;9.48;;;2.70;99.90;;;;;;10385471;28;20403;-61
2022/03/16 03:03:57;;;;;;;62.50;8.20;;;2.70;99.90;;;;;;10389023;28;20041;-60
2022/03/16 03:08:58;;;;;;;52.67;8.13;;;2.70;99.90;;;;;;10388850;28;20358;-60
2022/03/16 03:14:00;;;;;;;44.00;6.90;;;2.80;99.90;;;;;;10388087;28;20768;-60
2022/03/16 03:19:02;;;;;;;31.08;6.72;;;2.90;99.90;;;;;;10386556;28;20050;-61
2022/03/16 03:24:04;;;;;;;26.33;6.38;;;2.90;99.90;;;;;;10383041;28;20115;-61
2022/03/16 03:29:09;;;;;;;56.08;6.95;;;2.90;99.90;;;;;;10380769;28;20128;-61
2022/03/16 03:34:10;;;;;;;12.70;6.10;;;2.90;99.90;;;;;;10385173;28;20056;-62
2022/03/16 03:39:12;;;;;;;43.40;7.00;;;3.00;99.90;;;;;;10381176;28;20105;-60
2022/03/16 03:44:14;;;;;;;41.50;7.82;;;3.00;99.90;;;;;;10381232;28;20663;-60
2022/03/16 03:49:16;;;;;;;46.97;7.90;;;3.00;99.90;;;;;;10386102;28;20053;-61
2022/03/16 03:54:17;;;;;;;48.35;8.00;;;3.00;99.90;;;;;;10386707;28;20111;-61
2022/03/16 03:59:20;;;;;;;81.97;8.50;;;3.00;99.90;;;;;;10386192;28;20480;-61
2022/03/16 04:04:23;;;;;;;35.28;7.45;;;3.00;99.90;;;;;;10377373;28;20056;-61
2022/03/16 04:09:25;;;;;;;45.28;6.80;;;3.00;99.90;;;;;;10379035;28;20060;-60
2022/03/16 04:14:27;;;;;;;51.13;8.73;;;3.10;99.90;;;;;;10387141;28;20162;-61
2022/03/16 04:19:29;;;;;;;59.17;7.78;;;3.10;99.90;;;;;;10386328;28;20128;-61
2022/03/16 04:24:31;;;;;;;43.00;8.60;;;3.10;99.90;;;;;;10385090;28;20149;-60
2022/03/16 04:29:33;;;;;;;55.83;9.02;;;3.10;99.90;;;;;;10385621;28;20416;-60
2022/03/16 04:34:35;;;;;;;32.38;8.40;;;3.10;99.90;;;;;;10380258;28;20057;-61
2022/03/16 04:39:37;;;;;;;67.05;7.75;;;3.10;99.90;;;;;;10377736;28;20558;-61
2022/03/16 04:44:39;;;;;;;58.25;7.47;;;3.20;99.90;;;;;;10384430;28;20100;-60
2022/03/16 04:49:41;;;;;;;115.32;11.05;;;3.10;99.90;;;;;;10385155;28;20107;-61
2022/03/16 04:54:42;;;;;;;102.30;9.52;;;3.10;99.90;;;;;;10385410;28;20049;-61
2022/03/16 04:59:44;;;;;;;286.15;13.07;;;3.00;99.90;;;;;;10380294;28;20049;-62
2022/03/16 05:04:46;;;;;;;134.30;9.50;;;3.00;99.90;;;;;;10373937;28;20057;-62
2022/03/16 05:09:48;;;;;;;128.40;8.07;;;3.00;99.90;;;;;;10384016;28;20046;-62
2022/03/16 05:14:49;;;;;;;124.93;8.68;;;3.00;99.90;;;;;;10375933;28;20089;-62
2022/03/16 05:19:51;;;;;;;37.80;6.97;;;3.00;99.90;;;;;;10384664;28;20103;-62
2022/03/16 05:24:53;;;;;;;87.32;8.82;;;3.00;99.90;;;;;;10372196;28;20056;-62
2022/03/16 05:29:55;;;;;;;50.08;7.60;;;3.00;99.90;;;;;;10384966;28;20042;-64
2022/03/16 05:34:57;;;;;;;102.35;8.88;;;2.90;99.90;;;;;;10378926;28;20057;-65
2022/03/16 05:39:58;;;;;;;91.22;8.80;;;2.80;99.90;;;;;;10384293;28;20045;-65
2022/03/16 05:45:01;;;;;;;90.32;7.18;;;2.90;99.90;;;;;;10382947;28;20103;-64
2022/03/16 05:50:05;;;;;;;65.47;8.75;;;2.80;99.90;;;;;;10384296;28;20462;-64
2022/03/16 05:55:10;;;;;;;57.20;7.80;;;2.90;99.90;;;;;;10375933;28;20421;-64
2022/03/16 06:00:14;;;;;;;40.78;7.25;;;2.90;99.90;;;;;;10380457;28;20098;-64
2022/03/16 06:05:17;;;;;;;40.90;6.97;;;2.90;99.90;;;;;;10358113;28;20045;-64
2022/03/16 06:10:19;;;;;;;101.85;7.45;;;3.00;99.90;;;;;;10384187;28;20045;-65
2022/03/16 06:15:21;;;;;;;65.28;6.75;;;2.90;99.90;;;;;;10380158;28;20060;-63
2022/03/16 06:20:24;;;;;;;69.03;6.78;;;3.00;99.90;;;;;;10388189;28;20064;-64
2022/03/16 06:25:25;;;;;;;26.20;6.30;;;3.00;99.90;;;;;;10387978;28;20053;-64
2022/03/16 06:30:27;;;;;;;33.03;5.50;;;3.00;99.90;;;;;;10380956;28;20076;-64
2022/03/16 06:35:29;;;;;;;38.58;6.00;;;3.00;99.90;;;;;;10392771;28;20041;-65
2022/03/16 06:40:31;;;;;;;64.97;7.57;;;2.90;99.90;;;;;;10387961;28;20095;-64
2022/03/16 06:45:32;;;;;;;91.63;7.00;;;3.00;99.90;;;;;;10389314;28;20056;-63
2022/03/16 06:50:34;;;;;;;51.53;7.07;;;2.90;99.90;;;;;;10389297;28;20380;-64
2022/03/16 06:55:36;;;;;;;65.63;6.28;;;3.00;99.90;;;;;;10391425;28;20199;-63
2022/03/16 07:00:38;;;;;;;36.53;6.55;;;3.00;99.90;;;;;;10388235;28;20048;-64
2022/03/16 07:05:41;;;;;;;82.53;7.13;;;2.90;99.90;;;;;;10389382;28;20514;-64
2022/03/16 07:10:44;;;;;;;59.45;5.65;;;2.90;99.90;;;;;;10384251;28;20442;-63
2022/03/16 07:15:45;;;;;;;31.85;5.32;;;2.90;99.90;;;;;;10378545;28;20046;-61
2022/03/16 07:20:47;;;;;;;48.33;5.05;;;3.00;99.90;;;;;;10388067;28;20049;-60
2022/03/16 07:25:50;;;;;;;18.58;5.05;;;3.00;99.90;;;;;;10386226;28;20050;-61
2022/03/16 07:30:51;;;;;;;50.40;5.75;;;3.10;99.90;;;;;;10387633;28;20045;-61
2022/03/16 07:35:53;;;;;;;35.95;6.38;;;3.20;99.90;;;;;;10382949;28;20127;-62
2022/03/16 07:40:54;;;;;;;13.82;5.55;;;3.40;99.90;;;;;;10380409;28;20057;-62
2022/03/16 07:45:56;;;;;;;25.08;5.25;;;3.60;99.90;;;;;;10380860;28;20072;-63
2022/03/16 07:50:58;;;;;;;15.75;4.40;;;3.70;99.90;;;;;;10382089;28;20112;-63
2022/03/16 07:55:59;;;;;;;14.80;4.63;;;3.80;99.90;;;;;;10384912;28;20076;-62
2022/03/16 08:01:01;;;;;;;10.10;3.78;;;4.00;99.90;;;;;;10386014;28;20115;-64
2022/03/16 08:06:03;;;;;;;11.52;4.47;;;4.00;99.90;;;;;;10388642;28;20049;-63
2022/03/16 08:11:08;;;;;;;10.52;4.25;;;4.20;99.90;;;;;;10387292;28;20081;-62
2022/03/16 08:16:09;;;;;;;10.02;4.30;;;4.20;99.90;;;;;;10377599;28;20069;-63
2022/03/16 08:21:16;;;;;;;15.90;4.25;;;4.30;99.90;;;;;;10383916;28;20050;-63
2022/03/16 08:26:17;;;;;;;8.43;4.03;;;4.40;99.90;;;;;;10381440;28;20041;-62
2022/03/16 08:31:19;;;;;;;16.08;3.92;;;4.50;99.90;;;;;;10380420;28;20045;-62
2022/03/16 08:36:21;;;;;;;10.32;4.00;;;4.60;99.90;;;;;;10377336;28;20069;-62
2022/03/16 08:41:23;;;;;;;14.05;5.13;;;4.80;99.90;;;;;;10378821;28;20078;-62
2022/03/16 08:46:24;;;;;;;9.40;4.15;;;5.00;99.90;;;;;;10374687;28;20081;-61
2022/03/16 08:51:26;;;;;;;20.52;3.83;;;5.10;99.90;;;;;;10372499;28;20088;-62
2022/03/16 08:56:28;;;;;;;31.40;5.68;;;5.10;99.90;;;;;;10377299;28;20128;-61
2022/03/16 09:01:29;;;;;;;9.43;4.57;;;5.30;99.90;;;;;;10376348;28;20080;-61
2022/03/16 09:06:31;;;;;;;10.15;4.55;;;5.50;99.90;;;;;;10377232;28;20057;-61
2022/03/16 09:11:34;;;;;;;12.18;4.68;;;5.60;99.90;;;;;;10373993;28;20073;-62
2022/03/16 09:16:37;;;;;;;9.15;4.30;;;5.70;99.90;;;;;;10380545;28;20061;-62
2022/03/16 09:21:39;;;;;;;9.20;4.78;;;5.90;99.90;;;;;;10378833;28;20133;-62
2022/03/16 09:26:42;;;;;;;7.72;4.57;;;6.20;99.90;;;;;;10383144;28;20033;-62
2022/03/16 09:31:44;;;;;;;9.60;4.30;;;6.40;99.90;;;;;;10381998;28;20077;-62
2022/03/16 09:36:46;;;;;;;10.15;5.13;;;6.60;99.90;;;;;;10372300;28;20045;-62
2022/03/16 09:41:49;;;;;;;9.77;4.03;;;6.90;99.90;;;;;;10375767;28;20085;-62
2022/03/16 09:46:53;;;;;;;9.57;3.95;;;7.10;99.90;;;;;;10377971;28;20049;-61
2022/03/16 09:51:57;;;;;;;8.13;4.63;;;7.30;99.90;;;;;;10379832;28;20053;-61
2022/03/16 09:56:59;;;;;;;8.05;4.15;;;7.30;99.90;;;;;;10376600;28;20670;-61
2022/03/16 10:02:09;;;;;;;9.93;4.22;;;7.30;99.90;;;;;;10380043;28;20053;-61
2022/03/16 10:07:11;;;;;;;8.98;4.80;;;7.60;99.90;;;;;;10378191;28;20492;-62
2022/03/16 10:17:43;;;;;;;12.80;5.90;;;8.10;99.90;;;;;;10375596;28;20049;-62
2022/03/16 10:22:53;;;;;;;10.07;5.18;;;8.30;99.90;;;;;;10378159;28;20054;-62
2022/03/16 10:28:10;;;;;;;9.88;4.72;;;8.50;99.90;;;;;;10380587;28;20128;-62
2022/03/16 10:33:15;;;;;;;8.25;4.90;;;9.20;99.90;;;;;;10377012;28;20476;-62
2022/03/16 10:38:16;;;;;;;7.78;4.90;;;10.40;99.80;;;;;;10365355;28;20480;-64
2022/03/16 10:48:57;;;;;;;8.90;4.85;;;11.80;88.50;;;;;;10373202;28;20052;-64
2022/03/16 10:54:00;;;;;;;9.80;5.75;;;12.40;87.70;;;;;;10383855;28;20091;-64
2022/03/16 10:59:03;;;;;;;11.07;5.10;;;12.30;83.90;;;;;;10386699;28;20202;-63
2022/03/16 11:04:05;;;;;;;10.98;5.85;;;12.10;88.90;;;;;;10381191;28;20064;-62
2022/03/16 11:09:09;;;;;;;7.38;5.15;;;12.20;86.70;;;;;;10383582;28;20053;-62
2022/03/16 11:14:13;;;;;;;8.02;5.80;;;12.40;82.40;;;;;;10383940;28;20446;-63
2022/03/16 11:19:17;;;;;;;8.98;4.95;;;12.90;80.60;;;;;;10384997;28;20049;-62
2022/03/16 11:24:23;;;;;;;9.18;6.47;;;13.60;80.70;;;;;;10383880;28;20136;-61
2022/03/16 11:29:25;;;;;;;;;;;14.30;74.70;;;;;;10384093;28;20059;-62
2022/03/16 11:34:28;;;;;;;7.97;5.28;;;15.30;72.50;;;;;;10381319;28;19975;-62
2022/03/16 11:39:44;;;;;;;10.25;5.45;;;15.20;72.90;;;;;;10383988;28;20057;-62
2022/03/16 11:44:46;;;;;;;8.45;6.00;;;15.60;72.00;;;;;;10382602;28;20057;-62
2022/03/16 11:50:11;;;;;;;7.78;5.65;;;16.90;68.30;;;;;;10385590;28;20068;-62
2022/03/16 11:55:40;;;;;;;9.05;5.57;;;17.70;65.50;;;;;;10385973;28;20057;-63
2022/03/16 12:00:44;;;;;;;7.38;5.65;;;18.30;62.90;;;;;;10381592;28;20045;-62
2022/03/16 12:05:58;;;;;;;7.70;5.50;;;18.80;62.10;;;;;;10383230;28;20056;-62
2022/03/16 12:16:20;;;;;;;8.00;5.40;;;19.90;58.80;;;;;;10375266;28;20065;-61
2022/03/16 12:21:30;;;;;;;8.35;6.07;;;20.40;57.50;;;;;;10386103;28;20049;-61
2022/03/16 12:26:34;;;;;;;8.55;5.65;;;21.50;55.30;;;;;;10383095;28;20447;-61
2022/03/16 12:31:40;;;;;;;8.85;6.15;;;20.50;54.00;;;;;;10378591;28;20057;-60
2022/03/16 12:36:42;;;;;;;10.90;6.85;;;19.90;56.60;;;;;;10377964;28;20111;-60
2022/03/16 12:47:15;;;;;;;7.78;6.00;;;18.90;59.50;;;;;;10383851;28;20275;-61
2022/03/16 12:52:17;;;;;;;9.48;5.32;;;19.20;59.00;;;;;;10378101;28;20115;-61
2022/03/16 12:57:19;;;;;;;9.07;5.28;;;20.30;55.70;;;;;;10375321;28;20049;-61
2022/03/16 13:02:27;;;;;;;10.15;6.25;;;20.40;56.10;;;;;;10381875;28;20899;-60
2022/03/16 13:07:29;;;;;;;8.20;6.20;;;20.90;53.30;;;;;;10372110;28;20203;-60
2022/03/16 13:12:30;;;;;;;8.02;5.55;;;20.50;52.80;;;;;;10378834;28;20057;-62
2022/03/16 13:17:37;;;;;;;6.63;5.55;;;21.00;52.90;;;;;;10380712;28;20059;-61
2022/03/16 13:22:39;;;;;;;11.85;6.10;;;22.00;50.60;;;;;;10380267;28;20049;-61
2022/03/16 13:27:41;;;;;;;9.30;6.18;;;21.70;49.90;;;;;;10370507;28;20047;-60
2022/03/16 13:32:44;;;;;;;7.65;5.55;;;21.70;50.10;;;;;;10381816;28;20045;-64
2022/03/16 13:38:00;;;;;;;5.82;4.50;;;20.60;51.80;;;;;;10376703;28;20049;-64
2022/03/16 13:43:11;;;;;;;6.40;5.10;;;19.80;52.10;;;;;;10368888;28;20049;-64
2022/03/16 13:48:18;;;;;;;7.00;4.80;;;19.00;53.00;;;;;;10385229;28;20140;-64
2022/03/16 13:53:28;;;;;;;7.82;4.93;;;18.50;54.20;;;;;;10380800;28;20056;-64
2022/03/16 13:58:37;;;;;;;11.65;5.32;;;17.70;56.40;;;;;;10378905;28;20064;-62
2022/03/16 14:03:39;;;;;;;8.20;5.00;;;17.30;58.90;;;;;;10379679;28;20045;-62
2022/03/16 14:08:42;;;;;;;7.38;5.13;;;17.20;59.30;;;;;;10355711;28;20049;-62
2022/03/16 14:13:44;;;;;;;9.48;5.47;;;16.90;60.00;;;;;;10366632;28;20041;-63
2022/03/16 14:18:47;;;;;;;8.57;4.90;;;16.60;59.80;;;;;;10366441;28;20044;-63
2022/03/16 14:23:49;;;;;;;10.77;5.75;;;16.30;62.10;;;;;;10364578;28;20575;-65
2022/03/16 14:28:51;;;;;;;11.55;5.72;;;15.90;62.80;;;;;;10370967;28;20045;-63
2022/03/16 14:33:53;;;;;;;9.10;5.50;;;15.70;63.00;;;;;;10371271;28;20049;-63
2022/03/16 14:38:56;;;;;;;10.15;6.28;;;15.50;64.00;;;;;;10367233;28;20053;-64
2022/03/16 14:43:58;;;;;;;10.20;6.38;;;15.20;66.00;;;;;;10370816;28;20050;-63
2022/03/16 14:49:00;;;;;;;9.48;6.75;;;15.10;66.80;;;;;;10377554;28;20054;-64
2022/03/16 14:54:03;;;;;;;10.43;6.70;;;15.10;67.90;;;;;;10377344;28;20630;-62
2022/03/16 14:59:04;;;;;;;9.40;6.43;;;15.00;66.20;;;;;;10378916;28;20160;-62
2022/03/16 15:04:06;;;;;;;16.17;6.97;;;15.00;67.20;;;;;;10375971;28;20280;-62
2022/03/16 15:09:08;;;;;;;12.13;6.55;;;14.90;68.10;;;;;;10381939;28;20037;-62
2022/03/16 15:14:09;;;;;;;10.38;6.57;;;14.70;68.80;;;;;;10374160;28;20080;-62
2022/03/16 15:19:11;;;;;;;10.90;7.15;;;14.60;68.90;;;;;;10380351;28;20099;-62
2022/03/16 15:24:13;;;;;;;12.05;7.07;;;14.50;70.50;;;;;;10377293;28;20107;-62
2022/03/16 15:29:15;;;;;;;13.05;6.93;;;14.50;71.30;;;;;;10369928;28;20520;-62
2022/03/16 15:34:17;;;;;;;12.90;6.13;;;14.50;71.10;;;;;;10370636;28;20053;-62
2022/03/16 15:39:19;;;;;;;13.18;7.13;;;14.40;70.70;;;;;;10373583;28;20157;-63
2022/03/16 15:44:20;;;;;;;11.52;7.18;;;14.20;71.50;;;;;;10371764;28;20136;-63
2022/03/16 15:49:22;;;;;;;12.10;7.55;;;14.00;71.60;;;;;;10376098;28;20132;-62
2022/03/16 15:54:25;;;;;;;14.85;7.43;;;13.90;72.50;;;;;;10374937;28;20053;-63
2022/03/16 15:59:30;;;;;;;14.15;7.75;;;13.80;73.90;;;;;;10372171;28;20140;-64
2022/03/16 16:04:32;;;;;;;15.75;8.15;;;13.80;75.70;;;;;;10367647;28;20037;-63
2022/03/16 16:09:34;;;;;;;12.75;7.40;;;13.60;75.20;;;;;;10372686;28;20046;-63
2022/03/16 16:14:36;;;;;;;13.10;7.90;;;13.50;75.80;;;;;;10372105;28;20068;-64
2022/03/16 16:19:38;;;;;;;16.17;8.00;;;13.40;77.20;;;;;;10362634;28;20036;-64
2022/03/16 16:24:40;;;;;;;13.55;7.78;;;13.30;77.80;;;;;;10373339;28;20396;-64
2022/03/16 16:29:45;;;;;;;16.20;8.55;;;13.20;77.80;;;;;;10371517;28;20053;-63
2022/03/16 16:34:46;;;;;;;13.43;7.65;;;13.00;78.80;;;;;;10376239;28;20123;-62
2022/03/16 16:39:48;;;;;;;21.42;8.90;;;12.90;79.40;;;;;;10373878;28;20134;-62
2022/03/16 16:44:50;;;;;;;18.17;8.88;;;12.70;79.90;;;;;;10372407;28;20073;-63
2022/03/16 16:49:52;;;;;;;15.45;8.23;;;12.60;80.40;;;;;;10371011;28;20041;-62
2022/03/16 16:54:57;;;;;;;21.70;8.73;;;12.50;80.80;;;;;;10376798;28;20119;-63
2022/03/16 16:59:59;;;;;;;16.35;9.15;;;12.40;81.50;;;;;;10370689;28;20076;-62
2022/03/16 17:05:02;;;;;;;18.10;9.65;;;12.20;82.30;;;;;;10363088;28;20492;-63
2022/03/16 17:10:05;;;;;;;17.17;9.30;;;12.10;83.80;;;;;;10374351;28;20187;-63
2022/03/16 17:15:06;;;;;;;25.65;10.02;;;12.00;85.00;;;;;;10375872;28;20585;-63
2022/03/16 17:20:11;;;;;;;21.05;9.77;;;11.90;86.90;;;;;;10371199;28;20107;-64
2022/03/16 17:25:13;;;;;;;19.08;10.57;;;11.80;88.70;;;;;;10364341;28;20100;-63
2022/03/16 17:30:17;;;;;;;23.77;10.93;;;11.60;90.40;;;;;;10374466;28;20138;-63
2022/03/16 17:35:27;;;;;;;21.13;9.75;;;11.50;91.10;;;;;;10361951;28;20080;-63
2022/03/16 17:40:31;;;;;;;19.55;10.18;;;11.30;91.50;;;;;;10367100;28;20412;-64
2022/03/16 17:45:33;;;;;;;23.38;11.00;;;11.30;92.90;;;;;;10363002;28;20137;-63
2022/03/16 17:50:57;;;;;;;25.13;11.63;;;11.10;93.60;;;;;;10367195;28;20056;-64
2022/03/16 18:01:20;;;;;;;23.15;10.63;;;10.90;94.20;;;;;;10366792;28;20053;-63
2022/03/16 18:06:22;;;;;;;18.80;10.05;;;10.80;95.60;;;;;;10380201;28;20050;-64
2022/03/16 18:16:50;;;;;;;21.35;10.60;;;10.70;95.90;;;;;;10242878;28;20694;-56
2022/03/16 18:27:14;;;;;;;19.83;9.32;;;10.50;96.70;;;;;;10252938;28;20445;-56
2022/03/16 18:32:15;;;;;;;18.90;9.95;;;10.50;96.80;;;;;;10254752;28;20042;-58
2022/03/16 18:37:17;;;;;;;20.65;9.93;;;10.40;96.60;;;;;;10254740;28;20513;-59
2022/03/16 18:42:20;;;;;;;19.80;9.55;;;10.40;98.10;;;;;;10251641;28;20129;-57
2022/03/16 18:47:22;;;;;;;18.13;9.20;;;10.30;98.40;;;;;;10248623;28;20651;-57
2022/03/16 18:52:25;;;;;;;20.52;10.43;;;10.30;98.90;;;;;;10266394;28;20054;-57
2022/03/16 18:57:26;;;;;;;19.73;9.13;;;10.30;98.70;;;;;;10273180;28;20051;-57
2022/03/16 19:02:28;;;;;;;22.83;10.15;;;10.30;99.60;;;;;;10252961;28;20481;-59
2022/03/16 19:07:30;;;;;;;20.27;9.38;;;10.20;99.90;;;;;;10266552;28;20035;-59
2022/03/16 19:17:52;;;;;;;21.77;9.80;;;10.10;99.90;;;;;;10259362;28;20067;-57
2022/03/16 19:22:54;;;;;;;18.98;9.60;;;10.10;99.90;;;;;;10259778;28;20144;-58
2022/03/16 19:27:56;;;;;;;24.08;10.38;;;10.00;99.90;;;;;;10260003;28;20054;-58
2022/03/16 19:32:58;;;;;;;20.83;8.75;;;9.90;99.90;;;;;;10244219;28;20050;-57
2022/03/16 19:38:01;;;;;;;17.90;10.02;;;9.90;99.90;;;;;;10272146;28;20520;-58
2022/03/16 19:43:08;;;;;;;21.50;10.70;;;9.90;99.90;;;;;;10254119;28;20050;-57
2022/03/16 19:48:09;;;;;;;23.23;10.15;;;9.80;99.90;;;;;;10258013;28;20065;-57
2022/03/16 19:53:12;;;;;;;19.60;10.38;;;10.60;99.90;;;;;;10263530;28;20054;-58
2022/03/16 19:58:14;;;;;;;21.45;9.88;;;9.70;99.90;;;;;;10263197;28;20129;-56
2022/03/16 20:03:16;;;;;;;22.13;9.80;;;9.70;99.90;;;;;;10257819;28;20321;-59
2022/03/16 20:08:28;;;;;;;22.42;11.77;;;9.70;99.90;;;;;;10253764;28;20051;-58
2022/03/16 20:13:30;;;;;;;24.33;11.45;;;9.50;99.90;;;;;;10232764;28;20637;-57
2022/03/16 20:18:32;;;;;;;24.55;11.13;;;9.50;99.90;;;;;;10261563;28;20074;-58
2022/03/16 20:23:34;;;;;;;24.50;11.65;;;9.40;99.90;;;;;;10257550;28;20138;-58
2022/03/16 20:28:36;;;;;;;21.05;10.40;;;9.40;99.90;;;;;;10255475;28;20132;-58
2022/03/16 20:33:38;;;;;;;20.02;10.45;;;9.40;99.90;;;;;;10256447;28;20072;-62
2022/03/16 20:38:39;;;;;;;20.40;9.30;;;9.30;99.90;;;;;;10268216;28;20571;-62
2022/03/16 20:43:41;;;;;;;22.20;9.70;;;9.30;99.90;;;;;;10267467;28;20083;-62
2022/03/16 20:48:44;;;;;;;21.13;9.57;;;9.30;99.90;;;;;;10253248;28;20050;-58
2022/03/16 20:53:46;;;;;;;27.52;13.73;;;9.20;99.90;;;;;;10256333;28;20062;-58
2022/03/16 21:04:09;;;;;;;26.25;12.68;;;9.10;99.90;;;;;;10260306;28;20484;-57
2022/03/16 21:09:11;;;;;;;24.75;11.82;;;9.00;99.90;;;;;;10261658;28;20050;-57
2022/03/16 21:14:13;;;;;;;23.33;11.15;;;8.90;99.90;;;;;;10262796;28;20078;-58
2022/03/16 21:19:15;;;;;;;36.88;16.02;;;8.80;99.90;;;;;;10253473;28;20074;-58
2022/03/16 21:24:19;;;;;;;40.28;18.05;;;8.80;99.90;;;;;;10259621;28;20509;-60
2022/03/16 21:29:21;;;;;;;31.05;13.05;;;8.70;99.90;;;;;;10250835;28;20137;-57
2022/03/16 21:34:22;;;;;;;27.67;12.70;;;8.60;99.90;;;;;;10259605;28;20145;-58
2022/03/16 21:39:26;;;;;;;24.98;12.15;;;8.60;99.90;;;;;;10262178;28;20072;-57
2022/03/16 21:44:39;;;;;;;34.17;14.68;;;8.60;99.90;;;;;;10253714;28;20457;-57
2022/03/16 21:49:45;;;;;;;29.52;13.57;;;8.50;99.90;;;;;;10256636;28;20060;-56
2022/03/16 21:54:46;;;;;;;26.40;11.65;;;8.50;99.90;;;;;;10257674;28;20117;-58
2022/03/16 21:59:48;;;;;;;25.85;12.73;;;8.40;99.90;;;;;;10262243;28;20101;-57
2022/03/16 22:04:50;;;;;;;26.65;11.70;;;8.40;99.90;;;;;;10257244;28;20552;-59
2022/03/16 22:09:52;;;;;;;25.30;10.73;;;8.30;99.90;;;;;;10258549;28;20464;-57
2022/03/16 22:14:53;;;;;;;22.65;11.85;;;8.30;99.90;;;;;;10259999;28;20652;-56
2022/03/16 22:19:55;;;;;;;23.13;10.55;;;8.20;99.90;;;;;;10253841;28;20051;-57
2022/03/16 22:24:57;;;;;;;26.92;11.48;;;8.10;99.90;;;;;;10258858;28;20176;-58
2022/03/16 22:29:59;;;;;;;25.02;10.90;;;8.10;99.90;;;;;;10253246;28;20046;-59
2022/03/16 22:35:00;;;;;;;25.92;11.73;;;8.10;99.90;;;;;;10256468;28;20116;-60
2022/03/16 22:40:02;;;;;;;21.77;10.13;;;8.00;99.90;;;;;;10252053;28;20078;-57
2022/03/16 22:45:04;;;;;;;17.70;9.40;;;8.00;99.90;;;;;;10271967;28;20047;-58
2022/03/16 22:50:07;;;;;;;22.60;9.52;;;8.00;99.90;;;;;;10266887;28;20142;-57
2022/03/16 22:55:10;;;;;;;20.20;9.98;;;7.90;99.90;;;;;;10268599;28;20057;-58
2022/03/16 23:00:30;;;;;;;20.83;9.68;;;7.90;99.90;;;;;;10267425;28;20063;-59
2022/03/16 23:05:32;;;;;;;20.88;9.45;;;7.90;99.90;;;;;;10266293;28;20057;-58
2022/03/16 23:10:34;;;;;;;21.58;9.45;;;7.80;99.90;;;;;;10266677;28;20050;-59
2022/03/16 23:15:36;;;;;;;24.27;10.15;;;7.80;99.90;;;;;;10258541;28;20047;-59
2022/03/16 23:20:38;;;;;;;23.70;9.63;;;7.80;99.90;;;;;;10264322;28;20442;-58
2022/03/16 23:25:39;;;;;;;18.42;9.70;;;7.70;99.90;;;;;;10265648;28;20101;-58
2022/03/16 23:30:41;;;;;;;23.67;10.55;;;7.70;99.90;;;;;;10261970;28;20050;-57
2022/03/16 23:35:44;;;;;;;25.75;10.57;;;7.70;99.90;;;;;;10267830;28;20039;-56
2022/03/16 23:40:46;;;;;;;26.90;12.25;;;7.70;99.90;;;;;;10266638;28;20398;-57
2022/03/16 23:45:47;;;;;;;20.58;10.27;;;7.70;99.90;;;;;;10268840;28;20062;-57
2022/03/16 23:50:49;;;;;;;21.95;10.30;;;7.60;99.90;;;;;;10266217;28;20133;-56
2022/03/16 23:55:51;;;;;;;28.05;10.88;;;7.60;99.90;;;;;;10266840;28;20114;-57
